LFBOLIPZ

Guest
Details From LFBO - Toulouse Blagnac
To LIPZ - Venezia Tessera
Flight Number -
Tags Generated
Created
Modified
Stats Distance 483 nm / 895 km
Max Altitude 0 ft / 0 m
Waypoints 4
Social Downloads 0
Likes 0
Share VATSIM

Download

Looking for another format? Having issues loading an existing format? Contact us
Advertisement - Login to hide

Notes

Generated

Route

LFBO VEVAR LAPAB LIPZ

ID Type Via Altitude Latitude Longitude Leg Dist Tot Dist Heading (true) Name
O LFBO APT - 0 ft / 0 m 43.63736˚ 1.35762˚ - 0 nm - -
VEVAR FIX - 0 ft / 0 m 44.80000˚ 7.01250˚ 253 nm 253 nm 72° / 76° -
LAPAB FIX - 0 ft / 0 m 45.52944˚ 11.97167˚ 214 nm 467 nm 76° / 80° -
O LIPZ APT - 0 ft / 0 m 45.49516˚ 12.33556˚ 15 nm 483 nm 98° / 98° -

Altitude Profile

Advertisement - Login to hide

Weather


0- 5 10 15 20 25 30 35+ Temperature / ° C

Clouds and Precipitation
Forecast for 2018-05-28 00:00 UTC. Updated 9 hours ago

Ground ~20,000 ft ~40,000 ft Winds

LFBO

Details ICAO LFBO (TLS)
Name Toulouse Blagnac
Region France
Timezone Europe/Paris (UTC+2.0)
Stats Elevation 499 ft / 152 m (AMSL)
Location 43.629026° 1.363969°
Runways 2
Magnetic Variation 0.629° E

METAR

Not found

TAF

TAF AMD LFBO 280121Z 2801/2906 VRB03KT CAVOK PROB30 TEMPO 2801/2804 0800 BCFG BKN010 BECMG 2804/2806 BKN030 TEMPO 2804/2906 4000 RA BKN005 PROB30 TEMPO 2804/2821 VRB15G30KT 2000 TSRA BKN030CB BECMG 2821/2823 28008KT

Decode

Departure Runways

ID Width Length Bearing (true) Bearing (mag) Surface Threshold Offset Overrun Length
14L 148 ft / 45 m 9,923 ft / 3,025 m 143.00° 142.37° Asphalt 0 ft / 0 m 0 ft / 0 m
14R 148 ft / 45 m 11,484 ft / 3,500 m 142.99° 142.36° Asphalt 0 ft / 0 m 295 ft / 90 m
32L 148 ft / 45 m 11,484 ft / 3,500 m 323.01° 322.38° Asphalt 0 ft / 0 m 197 ft / 60 m
32R 148 ft / 45 m 9,923 ft / 3,025 m 323.02° 322.39° Asphalt 0 ft / 0 m 0 ft / 0 m

LIPZ

Details ICAO LIPZ (VCE)
Name Venezia Tessera
Region Italy
Timezone Europe/Rome (UTC+2.0)
Stats Elevation 7 ft / 2 m (AMSL)
Location 45.504791° 12.349691°
Runways 2
Magnetic Variation 3.231° E

METAR

Not found

TAF

TAF LIPZ 272300Z 2800/2906 VRB05KT 9999 FEW040 BECMG 2810/2812 14010KT TEMPO 2812/2818 TSRA BECMG 2817/2819 VRB05KT

Decode

Destination Runways

ID Width Length Bearing (true) Bearing (mag) Surface Threshold Offset Overrun Length
04L 148 ft / 45 m 9,112 ft / 2,777 m 42.01° 38.78° Asphalt 312 ft / 95 m 0 ft / 0 m
04R 148 ft / 45 m 10,834 ft / 3,302 m 41.99° 38.76° Asphalt 0 ft / 0 m 0 ft / 0 m
22L 148 ft / 45 m 10,834 ft / 3,302 m 222.01° 218.78° Asphalt 0 ft / 0 m 0 ft / 0 m
22R 148 ft / 45 m 9,112 ft / 2,777 m 222.02° 218.79° Asphalt 0 ft / 0 m 0 ft / 0 m

Approach Navaids

Runway Type Ident Frequency Range Bearing (true) Bearing (mag) Slope Elevation
04R Localiser VTS 109.95 MHz 18 nm / 33 km 42.02° 38.79° - 13 ft / 4 m (AMSL)
04R Glidescope VTS 109.95 MHz 10 nm / 19 km 42.00° 38.77° 3.00° 52 ft / 16 m (AMSL)
04R DME VTS 109.95 MHz 18 nm / 33 km - - - 26 ft / 8 m (AMSL)

Popular Alternatives